sensor_id;sensor_type;location;lat;lon;timestamp;temperature;humidity
44823;DHT22;51097;51.984;5.650;2023-04-25T00:01:35;9.70;99.90
44823;DHT22;51097;51.984;5.650;2023-04-25T00:04:02;9.60;99.90
44823;DHT22;51097;51.984;5.650;2023-04-25T00:06:29;9.50;99.90
44823;DHT22;51097;51.984;5.650;2023-04-25T00:08:55;9.50;99.90
44823;DHT22;51097;51.984;5.650;2023-04-25T00:11:22;9.50;99.90
44823;DHT22;51097;51.984;5.650;2023-04-25T00:13:47;9.40;99.90
44823;DHT22;51097;51.984;5.650;2023-04-25T00:16:15;9.40;99.90
44823;DHT22;51097;51.984;5.650;2023-04-25T00:18:41;9.40;99.90
44823;DHT22;51097;51.984;5.650;2023-04-25T00:21:07;9.40;99.90
44823;DHT22;51097;51.984;5.650;2023-04-25T00:23:32;9.30;99.90
44823;DHT22;51097;51.984;5.650;2023-04-25T00:26:00;9.30;99.90
44823;DHT22;51097;51.984;5.650;2023-04-25T00:28:26;9.20;99.90
44823;DHT22;51097;51.984;5.650;2023-04-25T00:30:51;9.10;99.90
44823;DHT22;51097;51.984;5.650;2023-04-25T00:33:17;9.10;99.90
44823;DHT22;51097;51.984;5.650;2023-04-25T00:35:43;9.00;99.90
44823;DHT22;51097;51.984;5.650;2023-04-25T00:38:08;9.00;99.90
44823;DHT22;51097;51.984;5.650;2023-04-25T00:40:34;8.90;99.90
44823;DHT22;51097;51.984;5.650;2023-04-25T00:43:00;8.90;99.90
44823;DHT22;51097;51.984;5.650;2023-04-25T00:45:28;8.90;99.90
44823;DHT22;51097;51.984;5.650;2023-04-25T00:47:55;8.90;99.90
44823;DHT22;51097;51.984;5.650;2023-04-25T00:50:21;8.90;99.90
44823;DHT22;51097;51.984;5.650;2023-04-25T00:52:46;8.90;99.90
44823;DHT22;51097;51.984;5.650;2023-04-25T00:55:12;8.90;99.90
44823;DHT22;51097;51.984;5.650;2023-04-25T00:57:39;8.80;99.90
44823;DHT22;51097;51.984;5.650;2023-04-25T01:00:07;8.80;99.90
44823;DHT22;51097;51.984;5.650;2023-04-25T01:02:35;8.90;99.90
44823;DHT22;51097;51.984;5.650;2023-04-25T01:05:01;8.90;99.90
44823;DHT22;51097;51.984;5.650;2023-04-25T01:07:27;8.90;99.90
44823;DHT22;51097;51.984;5.650;2023-04-25T01:09:53;8.90;99.90
44823;DHT22;51097;51.984;5.650;2023-04-25T01:12:18;8.90;99.90
44823;DHT22;51097;51.984;5.650;2023-04-25T01:14:44;8.90;99.90
44823;DHT22;51097;51.984;5.650;2023-04-25T01:17:10;9.00;99.90
44823;DHT22;51097;51.984;5.650;2023-04-25T01:19:36;9.00;99.90
44823;DHT22;51097;51.984;5.650;2023-04-25T01:22:01;8.90;99.90
44823;DHT22;51097;51.984;5.650;2023-04-25T01:24:27;8.90;99.90
44823;DHT22;51097;51.984;5.650;2023-04-25T01:26:54;9.00;99.90
44823;DHT22;51097;51.984;5.650;2023-04-25T01:29:22;9.00;99.90
44823;DHT22;51097;51.984;5.650;2023-04-25T01:31:48;9.10;99.90
44823;DHT22;51097;51.984;5.650;2023-04-25T01:34:14;9.10;99.90
44823;DHT22;51097;51.984;5.650;2023-04-25T01:36:39;9.20;99.90
44823;DHT22;51097;51.984;5.650;2023-04-25T01:39:06;9.20;99.90
44823;DHT22;51097;51.984;5.650;2023-04-25T01:41:32;9.30;99.90
44823;DHT22;51097;51.984;5.650;2023-04-25T01:43:59;9.30;99.90
44823;DHT22;51097;51.984;5.650;2023-04-25T01:46:26;9.40;99.90
44823;DHT22;51097;51.984;5.650;2023-04-25T01:48:52;9.40;99.90
44823;DHT22;51097;51.984;5.650;2023-04-25T01:51:18;9.40;99.90
44823;DHT22;51097;51.984;5.650;2023-04-25T01:53:44;9.40;99.90
44823;DHT22;51097;51.984;5.650;2023-04-25T01:56:10;9.40;99.90
44823;DHT22;51097;51.984;5.650;2023-04-25T01:58:35;9.40;99.90
44823;DHT22;51097;51.984;5.650;2023-04-25T02:01:01;9.50;99.90
44823;DHT22;51097;51.984;5.650;2023-04-25T02:03:27;9.50;99.90
44823;DHT22;51097;51.984;5.650;2023-04-25T02:05:52;9.50;99.90
44823;DHT22;51097;51.984;5.650;2023-04-25T02:08:18;9.50;99.90
44823;DHT22;51097;51.984;5.650;2023-04-25T02:10:44;9.50;99.90
44823;DHT22;51097;51.984;5.650;2023-04-25T02:13:09;9.60;99.90
44823;DHT22;51097;51.984;5.650;2023-04-25T02:15:35;9.50;99.90
44823;DHT22;51097;51.984;5.650;2023-04-25T02:18:01;9.40;99.90
44823;DHT22;51097;51.984;5.650;2023-04-25T02:20:28;9.40;99.90
44823;DHT22;51097;51.984;5.650;2023-04-25T02:22:54;9.40;99.90
44823;DHT22;51097;51.984;5.650;2023-04-25T02:25:20;9.30;99.90
44823;DHT22;51097;51.984;5.650;2023-04-25T02:27:46;9.30;99.90
44823;DHT22;51097;51.984;5.650;2023-04-25T02:30:12;9.30;99.90
44823;DHT22;51097;51.984;5.650;2023-04-25T02:32:39;9.30;99.90
44823;DHT22;51097;51.984;5.650;2023-04-25T02:35:05;9.20;99.90
44823;DHT22;51097;51.984;5.650;2023-04-25T02:37:32;9.20;99.90
44823;DHT22;51097;51.984;5.650;2023-04-25T02:39:58;9.20;99.90
44823;DHT22;51097;51.984;5.650;2023-04-25T02:42:23;9.20;99.90
44823;DHT22;51097;51.984;5.650;2023-04-25T02:44:49;9.10;99.90
44823;DHT22;51097;51.984;5.650;2023-04-25T02:47:14;8.90;99.90
44823;DHT22;51097;51.984;5.650;2023-04-25T02:49:40;9.00;99.90
44823;DHT22;51097;51.984;5.650;2023-04-25T02:52:06;8.90;99.90
44823;DHT22;51097;51.984;5.650;2023-04-25T02:54:32;8.90;99.90
44823;DHT22;51097;51.984;5.650;2023-04-25T02:56:57;8.80;99.90
44823;DHT22;51097;51.984;5.650;2023-04-25T02:59:23;8.80;99.90
44823;DHT22;51097;51.984;5.650;2023-04-25T03:01:49;8.80;99.90
44823;DHT22;51097;51.984;5.650;2023-04-25T03:04:14;8.80;99.90
44823;DHT22;51097;51.984;5.650;2023-04-25T03:06:40;8.60;99.90
44823;DHT22;51097;51.984;5.650;2023-04-25T03:09:05;8.60;99.90
44823;DHT22;51097;51.984;5.650;2023-04-25T03:11:31;8.50;99.90
44823;DHT22;51097;51.984;5.650;2023-04-25T03:13:57;8.50;99.90
44823;DHT22;51097;51.984;5.650;2023-04-25T03:16:23;8.40;99.90
44823;DHT22;51097;51.984;5.650;2023-04-25T03:18:48;8.30;99.90
44823;DHT22;51097;51.984;5.650;2023-04-25T03:21:15;8.40;99.90
44823;DHT22;51097;51.984;5.650;2023-04-25T03:23:41;8.30;99.90
44823;DHT22;51097;51.984;5.650;2023-04-25T03:26:06;8.30;99.90
44823;DHT22;51097;51.984;5.650;2023-04-25T03:28:32;8.30;99.90
44823;DHT22;51097;51.984;5.650;2023-04-25T03:30:57;8.30;99.90
44823;DHT22;51097;51.984;5.650;2023-04-25T03:33:23;8.40;99.90
44823;DHT22;51097;51.984;5.650;2023-04-25T03:35:48;8.30;99.90
44823;DHT22;51097;51.984;5.650;2023-04-25T03:38:15;8.30;99.90
44823;DHT22;51097;51.984;5.650;2023-04-25T03:40:41;8.20;99.90
44823;DHT22;51097;51.984;5.650;2023-04-25T03:43:06;8.20;99.90
44823;DHT22;51097;51.984;5.650;2023-04-25T03:45:32;8.20;99.90
44823;DHT22;51097;51.984;5.650;2023-04-25T03:47:58;8.30;99.90
44823;DHT22;51097;51.984;5.650;2023-04-25T03:50:23;8.40;99.90
44823;DHT22;51097;51.984;5.650;2023-04-25T03:52:49;8.40;99.90
44823;DHT22;51097;51.984;5.650;2023-04-25T03:55:15;8.50;99.90
44823;DHT22;51097;51.984;5.650;2023-04-25T03:57:40;8.30;99.90
44823;DHT22;51097;51.984;5.650;2023-04-25T04:00:07;8.30;99.90
44823;DHT22;51097;51.984;5.650;2023-04-25T04:02:33;8.30;99.90
44823;DHT22;51097;51.984;5.650;2023-04-25T04:05:00;8.30;99.90
44823;DHT22;51097;51.984;5.650;2023-04-25T04:07:26;8.30;99.90
44823;DHT22;51097;51.984;5.650;2023-04-25T04:09:51;8.30;99.90
44823;DHT22;51097;51.984;5.650;2023-04-25T04:12:19;8.20;99.90
44823;DHT22;51097;51.984;5.650;2023-04-25T04:14:45;8.30;99.90
44823;DHT22;51097;51.984;5.650;2023-04-25T04:17:10;8.20;99.90
44823;DHT22;51097;51.984;5.650;2023-04-25T04:19:39;8.20;99.90
44823;DHT22;51097;51.984;5.650;2023-04-25T04:22:04;8.20;99.90
44823;DHT22;51097;51.984;5.650;2023-04-25T04:24:33;8.20;99.90
44823;DHT22;51097;51.984;5.650;2023-04-25T04:26:58;8.20;99.90
44823;DHT22;51097;51.984;5.650;2023-04-25T04:29:24;8.20;99.90
44823;DHT22;51097;51.984;5.650;2023-04-25T04:31:50;8.30;99.90
44823;DHT22;51097;51.984;5.650;2023-04-25T04:34:17;8.20;99.90
44823;DHT22;51097;51.984;5.650;2023-04-25T04:36:44;8.30;99.90
44823;DHT22;51097;51.984;5.650;2023-04-25T04:39:11;8.30;99.90
44823;DHT22;51097;51.984;5.650;2023-04-25T04:41:37;8.40;99.90
44823;DHT22;51097;51.984;5.650;2023-04-25T04:44:03;8.40;99.90
44823;DHT22;51097;51.984;5.650;2023-04-25T04:46:29;8.50;99.90
44823;DHT22;51097;51.984;5.650;2023-04-25T04:48:55;8.50;99.90
44823;DHT22;51097;51.984;5.650;2023-04-25T04:51:21;8.50;99.90
44823;DHT22;51097;51.984;5.650;2023-04-25T04:53:47;8.50;99.90
44823;DHT22;51097;51.984;5.650;2023-04-25T04:56:12;8.50;99.90
44823;DHT22;51097;51.984;5.650;2023-04-25T04:58:38;8.60;99.90
44823;DHT22;51097;51.984;5.650;2023-04-25T05:01:03;8.60;99.90
44823;DHT22;51097;51.984;5.650;2023-04-25T05:03:29;8.80;99.90
44823;DHT22;51097;51.984;5.650;2023-04-25T05:05:55;8.80;99.90
44823;DHT22;51097;51.984;5.650;2023-04-25T05:08:20;8.80;99.90
44823;DHT22;51097;51.984;5.650;2023-04-25T05:10:46;8.90;99.90
44823;DHT22;51097;51.984;5.650;2023-04-25T05:13:11;8.90;99.90
44823;DHT22;51097;51.984;5.650;2023-04-25T05:15:37;8.90;99.90
44823;DHT22;51097;51.984;5.650;2023-04-25T05:18:02;9.10;99.90
44823;DHT22;51097;51.984;5.650;2023-04-25T05:20:28;9.10;99.90
44823;DHT22;51097;51.984;5.650;2023-04-25T05:22:54;9.20;99.90
44823;DHT22;51097;51.984;5.650;2023-04-25T05:25:19;9.20;99.90
44823;DHT22;51097;51.984;5.650;2023-04-25T05:27:45;9.20;99.90
44823;DHT22;51097;51.984;5.650;2023-04-25T05:30:10;9.30;99.90
44823;DHT22;51097;51.984;5.650;2023-04-25T05:32:36;9.30;99.90
44823;DHT22;51097;51.984;5.650;2023-04-25T05:35:02;9.30;99.90
44823;DHT22;51097;51.984;5.650;2023-04-25T05:37:28;9.40;99.90
44823;DHT22;51097;51.984;5.650;2023-04-25T05:39:55;9.50;99.90
44823;DHT22;51097;51.984;5.650;2023-04-25T05:42:21;9.60;99.90
44823;DHT22;51097;51.984;5.650;2023-04-25T05:44:47;9.70;99.90
44823;DHT22;51097;51.984;5.650;2023-04-25T05:47:12;9.70;99.90
44823;DHT22;51097;51.984;5.650;2023-04-25T05:49:38;9.70;99.90
44823;DHT22;51097;51.984;5.650;2023-04-25T05:52:03;9.80;99.90
44823;DHT22;51097;51.984;5.650;2023-04-25T05:54:29;9.80;99.90
44823;DHT22;51097;51.984;5.650;2023-04-25T05:56:56;9.90;99.90
44823;DHT22;51097;51.984;5.650;2023-04-25T05:59:22;9.90;99.90
44823;DHT22;51097;51.984;5.650;2023-04-25T06:01:48;9.90;99.90
44823;DHT22;51097;51.984;5.650;2023-04-25T06:04:13;10.00;99.90
44823;DHT22;51097;51.984;5.650;2023-04-25T06:06:39;10.00;99.90
44823;DHT22;51097;51.984;5.650;2023-04-25T06:09:05;10.10;99.90
44823;DHT22;51097;51.984;5.650;2023-04-25T06:11:30;10.10;99.90
44823;DHT22;51097;51.984;5.650;2023-04-25T06:13:56;10.30;99.90
44823;DHT22;51097;51.984;5.650;2023-04-25T06:16:21;10.30;99.90
44823;DHT22;51097;51.984;5.650;2023-04-25T06:18:47;10.30;99.90
44823;DHT22;51097;51.984;5.650;2023-04-25T06:21:12;10.40;99.90
44823;DHT22;51097;51.984;5.650;2023-04-25T06:23:38;10.50;99.90
44823;DHT22;51097;51.984;5.650;2023-04-25T06:26:04;10.60;99.90
44823;DHT22;51097;51.984;5.650;2023-04-25T06:28:29;10.70;99.90
44823;DHT22;51097;51.984;5.650;2023-04-25T06:30:55;10.90;99.90
44823;DHT22;51097;51.984;5.650;2023-04-25T06:33:20;10.90;99.90
44823;DHT22;51097;51.984;5.650;2023-04-25T06:35:46;10.90;99.90
44823;DHT22;51097;51.984;5.650;2023-04-25T06:38:12;11.00;99.90
44823;DHT22;51097;51.984;5.650;2023-04-25T06:40:38;11.20;99.90
44823;DHT22;51097;51.984;5.650;2023-04-25T06:43:03;11.30;99.90
44823;DHT22;51097;51.984;5.650;2023-04-25T06:45:29;11.40;99.90
44823;DHT22;51097;51.984;5.650;2023-04-25T06:47:54;11.60;99.90
44823;DHT22;51097;51.984;5.650;2023-04-25T06:50:20;11.50;99.90
44823;DHT22;51097;51.984;5.650;2023-04-25T06:52:46;11.60;99.90
44823;DHT22;51097;51.984;5.650;2023-04-25T06:55:11;11.80;99.90
44823;DHT22;51097;51.984;5.650;2023-04-25T06:57:37;12.00;99.90
44823;DHT22;51097;51.984;5.650;2023-04-25T07:00:03;12.00;99.90
44823;DHT22;51097;51.984;5.650;2023-04-25T07:02:30;12.00;99.90
44823;DHT22;51097;51.984;5.650;2023-04-25T07:04:56;12.20;99.90
44823;DHT22;51097;51.984;5.650;2023-04-25T07:07:25;12.20;99.90
44823;DHT22;51097;51.984;5.650;2023-04-25T07:09:50;12.40;99.90
44823;DHT22;51097;51.984;5.650;2023-04-25T07:12:16;12.40;99.90
44823;DHT22;51097;51.984;5.650;2023-04-25T07:14:41;12.40;99.90
44823;DHT22;51097;51.984;5.650;2023-04-25T07:17:07;12.60;99.90
44823;DHT22;51097;51.984;5.650;2023-04-25T07:19:33;12.70;99.90
44823;DHT22;51097;51.984;5.650;2023-04-25T07:21:58;12.70;99.90
44823;DHT22;51097;51.984;5.650;2023-04-25T07:24:24;12.70;99.90
44823;DHT22;51097;51.984;5.650;2023-04-25T07:26:50;12.90;99.90
44823;DHT22;51097;51.984;5.650;2023-04-25T07:29:15;12.90;99.90
44823;DHT22;51097;51.984;5.650;2023-04-25T07:31:41;13.00;99.90
44823;DHT22;51097;51.984;5.650;2023-04-25T07:34:07;13.10;99.90
44823;DHT22;51097;51.984;5.650;2023-04-25T07:36:32;13.20;99.90
44823;DHT22;51097;51.984;5.650;2023-04-25T07:38:58;13.20;99.90
44823;DHT22;51097;51.984;5.650;2023-04-25T07:41:23;13.20;99.90
44823;DHT22;51097;51.984;5.650;2023-04-25T07:43:49;13.30;99.90
44823;DHT22;51097;51.984;5.650;2023-04-25T07:46:15;13.30;99.90
44823;DHT22;51097;51.984;5.650;2023-04-25T07:48:40;13.40;99.90
44823;DHT22;51097;51.984;5.650;2023-04-25T07:51:06;13.50;99.90
44823;DHT22;51097;51.984;5.650;2023-04-25T07:53:33;13.50;99.90
44823;DHT22;51097;51.984;5.650;2023-04-25T07:56:00;13.60;99.90
44823;DHT22;51097;51.984;5.650;2023-04-25T07:58:25;13.70;99.90
44823;DHT22;51097;51.984;5.650;2023-04-25T08:00:51;13.80;99.90
44823;DHT22;51097;51.984;5.650;2023-04-25T08:03:16;13.80;99.90
44823;DHT22;51097;51.984;5.650;2023-04-25T08:05:42;13.80;99.90
44823;DHT22;51097;51.984;5.650;2023-04-25T08:08:08;13.90;99.90
44823;DHT22;51097;51.984;5.650;2023-04-25T08:10:34;13.90;99.90
44823;DHT22;51097;51.984;5.650;2023-04-25T08:12:59;14.10;99.90
44823;DHT22;51097;51.984;5.650;2023-04-25T08:15:25;14.10;99.90
44823;DHT22;51097;51.984;5.650;2023-04-25T08:17:51;14.40;99.90
44823;DHT22;51097;51.984;5.650;2023-04-25T08:20:17;14.60;99.90
44823;DHT22;51097;51.984;5.650;2023-04-25T08:22:43;14.80;99.90
44823;DHT22;51097;51.984;5.650;2023-04-25T08:25:08;15.10;99.90
44823;DHT22;51097;51.984;5.650;2023-04-25T08:27:34;15.20;99.90
44823;DHT22;51097;51.984;5.650;2023-04-25T08:30:00;15.50;99.90
44823;DHT22;51097;51.984;5.650;2023-04-25T08:32:26;15.70;99.90
44823;DHT22;51097;51.984;5.650;2023-04-25T08:34:51;15.80;99.90
44823;DHT22;51097;51.984;5.650;2023-04-25T08:37:19;16.10;99.90
44823;DHT22;51097;51.984;5.650;2023-04-25T08:39:45;16.20;99.90
44823;DHT22;51097;51.984;5.650;2023-04-25T08:42:14;16.10;99.90
44823;DHT22;51097;51.984;5.650;2023-04-25T08:44:40;16.30;99.90
44823;DHT22;51097;51.984;5.650;2023-04-25T08:47:06;16.50;99.90
44823;DHT22;51097;51.984;5.650;2023-04-25T08:49:32;16.50;99.90
44823;DHT22;51097;51.984;5.650;2023-04-25T08:52:03;16.60;99.90
44823;DHT22;51097;51.984;5.650;2023-04-25T08:54:31;16.80;99.90
44823;DHT22;51097;51.984;5.650;2023-04-25T08:57:00;17.00;99.90
44823;DHT22;51097;51.984;5.650;2023-04-25T08:59:27;17.00;99.90
44823;DHT22;51097;51.984;5.650;2023-04-25T09:01:53;17.00;99.90
44823;DHT22;51097;51.984;5.650;2023-04-25T09:04:19;17.00;99.90
44823;DHT22;51097;51.984;5.650;2023-04-25T09:06:46;17.10;99.90
44823;DHT22;51097;51.984;5.650;2023-04-25T09:09:11;17.00;99.90
44823;DHT22;51097;51.984;5.650;2023-04-25T09:11:37;17.00;99.90
44823;DHT22;51097;51.984;5.650;2023-04-25T09:14:19;17.10;99.90
44823;DHT22;51097;51.984;5.650;2023-04-25T09:19:24;17.40;99.90
44823;DHT22;51097;51.984;5.650;2023-04-25T09:21:50;17.30;99.90
44823;DHT22;51097;51.984;5.650;2023-04-25T09:24:20;17.30;99.90
44823;DHT22;51097;51.984;5.650;2023-04-25T09:26:54;17.30;99.90
44823;DHT22;51097;51.984;5.650;2023-04-25T09:29:32;17.30;99.90
44823;DHT22;51097;51.984;5.650;2023-04-25T09:32:20;17.20;99.90
44823;DHT22;51097;51.984;5.650;2023-04-25T09:34:51;17.20;99.90
44823;DHT22;51097;51.984;5.650;2023-04-25T09:37:21;16.80;99.90
44823;DHT22;51097;51.984;5.650;2023-04-25T09:39:54;16.80;99.90
44823;DHT22;51097;51.984;5.650;2023-04-25T09:42:25;16.60;99.90
44823;DHT22;51097;51.984;5.650;2023-04-25T09:44:53;16.60;99.80
44823;DHT22;51097;51.984;5.650;2023-04-25T09:47:19;16.50;99.60
44823;DHT22;51097;51.984;5.650;2023-04-25T09:49:46;16.60;99.90
44823;DHT22;51097;51.984;5.650;2023-04-25T09:52:20;16.60;99.90
44823;DHT22;51097;51.984;5.650;2023-04-25T09:54:48;16.80;99.90
44823;DHT22;51097;51.984;5.650;2023-04-25T09:57:24;17.10;99.90
44823;DHT22;51097;51.984;5.650;2023-04-25T09:59:54;17.40;99.90
44823;DHT22;51097;51.984;5.650;2023-04-25T10:02:22;17.80;99.90
44823;DHT22;51097;51.984;5.650;2023-04-25T10:04:50;18.10;99.90
44823;DHT22;51097;51.984;5.650;2023-04-25T10:07:18;18.20;99.90
44823;DHT22;51097;51.984;5.650;2023-04-25T10:09:49;18.50;99.20
44823;DHT22;51097;51.984;5.650;2023-04-25T10:12:17;18.50;97.10
44823;DHT22;51097;51.984;5.650;2023-04-25T10:14:44;18.50;99.20
44823;DHT22;51097;51.984;5.650;2023-04-25T10:17:10;18.40;99.10
44823;DHT22;51097;51.984;5.650;2023-04-25T10:19:37;18.40;98.00
44823;DHT22;51097;51.984;5.650;2023-04-25T10:22:48;18.30;97.70
44823;DHT22;51097;51.984;5.650;2023-04-25T10:24:56;18.30;97.40
44823;DHT22;51097;51.984;5.650;2023-04-25T10:27:22;18.20;99.50
44823;DHT22;51097;51.984;5.650;2023-04-25T10:30:01;18.20;98.90
44823;DHT22;51097;51.984;5.650;2023-04-25T10:32:31;18.20;98.40
44823;DHT22;51097;51.984;5.650;2023-04-25T10:34:57;17.90;98.40
44823;DHT22;51097;51.984;5.650;2023-04-25T10:37:24;18.00;98.40
44823;DHT22;51097;51.984;5.650;2023-04-25T10:39:49;17.80;98.20
44823;DHT22;51097;51.984;5.650;2023-04-25T10:42:15;17.70;98.60
44823;DHT22;51097;51.984;5.650;2023-04-25T10:44:40;17.60;99.20
44823;DHT22;51097;51.984;5.650;2023-04-25T10:47:35;17.80;98.90
44823;DHT22;51097;51.984;5.650;2023-04-25T10:50:08;18.00;99.00
44823;DHT22;51097;51.984;5.650;2023-04-25T10:52:34;18.20;96.50
44823;DHT22;51097;51.984;5.650;2023-04-25T10:55:03;18.40;98.50
44823;DHT22;51097;51.984;5.650;2023-04-25T11:00:11;18.60;97.40
44823;DHT22;51097;51.984;5.650;2023-04-25T11:02:44;18.60;96.90
44823;DHT22;51097;51.984;5.650;2023-04-25T11:05:36;18.70;98.20
44823;DHT22;51097;51.984;5.650;2023-04-25T11:08:02;18.90;96.40
44823;DHT22;51097;51.984;5.650;2023-04-25T11:10:31;19.00;97.70
44823;DHT22;51097;51.984;5.650;2023-04-25T11:12:58;19.20;96.70
44823;DHT22;51097;51.984;5.650;2023-04-25T11:15:24;19.30;95.20
44823;DHT22;51097;51.984;5.650;2023-04-25T11:17:53;19.40;96.40
44823;DHT22;51097;51.984;5.650;2023-04-25T11:20:19;19.50;95.60
44823;DHT22;51097;51.984;5.650;2023-04-25T11:22:46;19.70;94.70
44823;DHT22;51097;51.984;5.650;2023-04-25T11:25:14;19.70;93.90
44823;DHT22;51097;51.984;5.650;2023-04-25T11:27:59;19.80;92.60
44823;DHT22;51097;51.984;5.650;2023-04-25T11:30:26;19.80;91.50
44823;DHT22;51097;51.984;5.650;2023-04-25T11:32:52;19.80;93.30
44823;DHT22;51097;51.984;5.650;2023-04-25T11:35:19;19.80;91.50
44823;DHT22;51097;51.984;5.650;2023-04-25T11:37:45;19.50;90.80
44823;DHT22;51097;51.984;5.650;2023-04-25T11:40:11;19.50;95.00
44823;DHT22;51097;51.984;5.650;2023-04-25T11:42:37;19.50;93.30
44823;DHT22;51097;51.984;5.650;2023-04-25T11:45:04;19.70;94.20
44823;DHT22;51097;51.984;5.650;2023-04-25T11:47:31;19.90;93.30
44823;DHT22;51097;51.984;5.650;2023-04-25T11:50:04;20.20;92.60
44823;DHT22;51097;51.984;5.650;2023-04-25T11:52:44;20.30;92.70
44823;DHT22;51097;51.984;5.650;2023-04-25T11:55:16;20.50;95.20
44823;DHT22;51097;51.984;5.650;2023-04-25T11:57:44;20.50;95.20
44823;DHT22;51097;51.984;5.650;2023-04-25T12:00:14;20.50;96.10
44823;DHT22;51097;51.984;5.650;2023-04-25T12:02:43;20.30;94.60
44823;DHT22;51097;51.984;5.650;2023-04-25T12:05:10;20.30;95.20
44823;DHT22;51097;51.984;5.650;2023-04-25T12:07:36;20.10;94.90
44823;DHT22;51097;51.984;5.650;2023-04-25T12:10:10;20.10;94.70
44823;DHT22;51097;51.984;5.650;2023-04-25T12:12:37;19.90;94.30
44823;DHT22;51097;51.984;5.650;2023-04-25T12:15:22;19.70;94.30
44823;DHT22;51097;51.984;5.650;2023-04-25T12:17:50;19.70;95.60
44823;DHT22;51097;51.984;5.650;2023-04-25T12:20:17;19.60;94.80
44823;DHT22;51097;51.984;5.650;2023-04-25T12:22:46;19.50;95.40
44823;DHT22;51097;51.984;5.650;2023-04-25T12:25:38;19.50;94.60
44823;DHT22;51097;51.984;5.650;2023-04-25T12:30:59;19.40;94.00
44823;DHT22;51097;51.984;5.650;2023-04-25T12:33:27;19.40;94.20
44823;DHT22;51097;51.984;5.650;2023-04-25T12:35:54;19.40;93.00
44823;DHT22;51097;51.984;5.650;2023-04-25T12:38:34;19.40;93.70
44823;DHT22;51097;51.984;5.650;2023-04-25T12:41:01;19.60;94.30
44823;DHT22;51097;51.984;5.650;2023-04-25T12:43:26;19.60;93.90
44823;DHT22;51097;51.984;5.650;2023-04-25T12:45:53;19.90;92.80
44823;DHT22;51097;51.984;5.650;2023-04-25T12:48:20;20.10;94.10
44823;DHT22;51097;51.984;5.650;2023-04-25T12:50:46;20.10;94.40
44823;DHT22;51097;51.984;5.650;2023-04-25T12:53:19;20.20;93.10
44823;DHT22;51097;51.984;5.650;2023-04-25T12:55:46;20.30;94.10
44823;DHT22;51097;51.984;5.650;2023-04-25T12:58:13;20.40;90.90
44823;DHT22;51097;51.984;5.650;2023-04-25T13:00:38;20.10;92.20
44823;DHT22;51097;51.984;5.650;2023-04-25T13:03:04;20.10;94.00
44823;DHT22;51097;51.984;5.650;2023-04-25T13:05:30;19.80;92.80
44823;DHT22;51097;51.984;5.650;2023-04-25T13:07:56;19.60;92.00
44823;DHT22;51097;51.984;5.650;2023-04-25T13:10:22;19.50;91.20
44823;DHT22;51097;51.984;5.650;2023-04-25T13:12:47;19.50;92.50
44823;DHT22;51097;51.984;5.650;2023-04-25T13:15:13;19.50;92.60
44823;DHT22;51097;51.984;5.650;2023-04-25T13:17:41;19.60;91.90
44823;DHT22;51097;51.984;5.650;2023-04-25T13:20:07;19.40;91.20
44823;DHT22;51097;51.984;5.650;2023-04-25T13:22:38;19.60;92.00
44823;DHT22;51097;51.984;5.650;2023-04-25T13:25:05;19.50;91.10
44823;DHT22;51097;51.984;5.650;2023-04-25T13:27:32;19.60;92.60
44823;DHT22;51097;51.984;5.650;2023-04-25T13:30:05;19.80;90.10
44823;DHT22;51097;51.984;5.650;2023-04-25T13:32:36;19.70;92.30
44823;DHT22;51097;51.984;5.650;2023-04-25T13:35:03;20.00;87.90
44823;DHT22;51097;51.984;5.650;2023-04-25T13:37:30;20.10;88.30
44823;DHT22;51097;51.984;5.650;2023-04-25T13:40:00;20.00;92.10
44823;DHT22;51097;51.984;5.650;2023-04-25T13:42:26;19.90;92.80
44823;DHT22;51097;51.984;5.650;2023-04-25T13:44:51;20.40;93.00
44823;DHT22;51097;51.984;5.650;2023-04-25T13:47:17;20.70;89.00
44823;DHT22;51097;51.984;5.650;2023-04-25T13:49:43;20.80;90.60
44823;DHT22;51097;51.984;5.650;2023-04-25T13:52:08;20.90;87.50
44823;DHT22;51097;51.984;5.650;2023-04-25T13:54:34;20.90;90.40
44823;DHT22;51097;51.984;5.650;2023-04-25T13:56:59;20.90;91.60
44823;DHT22;51097;51.984;5.650;2023-04-25T13:59:25;20.90;91.70
44823;DHT22;51097;51.984;5.650;2023-04-25T14:01:51;21.00;91.30
44823;DHT22;51097;51.984;5.650;2023-04-25T14:04:17;20.90;91.40
44823;DHT22;51097;51.984;5.650;2023-04-25T14:06:43;21.00;91.30
44823;DHT22;51097;51.984;5.650;2023-04-25T14:09:08;20.80;91.20
44823;DHT22;51097;51.984;5.650;2023-04-25T14:11:36;20.80;91.50
44823;DHT22;51097;51.984;5.650;2023-04-25T14:14:02;20.80;92.70
44823;DHT22;51097;51.984;5.650;2023-04-25T14:16:29;20.90;91.50
44823;DHT22;51097;51.984;5.650;2023-04-25T14:18:57;20.70;91.70
44823;DHT22;51097;51.984;5.650;2023-04-25T14:21:23;20.50;90.90
44823;DHT22;51097;51.984;5.650;2023-04-25T14:23:49;20.50;91.10
44823;DHT22;51097;51.984;5.650;2023-04-25T14:26:14;20.50;87.90
44823;DHT22;51097;51.984;5.650;2023-04-25T14:28:40;20.40;89.00
44823;DHT22;51097;51.984;5.650;2023-04-25T14:31:06;20.30;90.50
44823;DHT22;51097;51.984;5.650;2023-04-25T14:33:32;20.40;90.60
44823;DHT22;51097;51.984;5.650;2023-04-25T14:35:57;20.50;90.70
44823;DHT22;51097;51.984;5.650;2023-04-25T14:38:23;20.60;90.80
44823;DHT22;51097;51.984;5.650;2023-04-25T14:40:51;20.70;89.10
44823;DHT22;51097;51.984;5.650;2023-04-25T14:43:16;20.60;90.60
44823;DHT22;51097;51.984;5.650;2023-04-25T14:45:42;20.50;88.40
44823;DHT22;51097;51.984;5.650;2023-04-25T14:48:07;20.10;89.50
44823;DHT22;51097;51.984;5.650;2023-04-25T14:50:33;20.30;91.60
44823;DHT22;51097;51.984;5.650;2023-04-25T14:52:59;20.20;90.30
44823;DHT22;51097;51.984;5.650;2023-04-25T14:55:26;20.40;87.50
44823;DHT22;51097;51.984;5.650;2023-04-25T14:57:53;20.40;86.60
44823;DHT22;51097;51.984;5.650;2023-04-25T15:00:19;20.30;88.50
44823;DHT22;51097;51.984;5.650;2023-04-25T15:02:46;20.20;86.20
44823;DHT22;51097;51.984;5.650;2023-04-25T15:05:12;20.20;86.80
44823;DHT22;51097;51.984;5.650;2023-04-25T15:07:39;20.20;87.00
44823;DHT22;51097;51.984;5.650;2023-04-25T15:10:06;20.00;86.90
44823;DHT22;51097;51.984;5.650;2023-04-25T15:12:36;20.00;88.30
44823;DHT22;51097;51.984;5.650;2023-04-25T15:15:02;20.10;85.80
44823;DHT22;51097;51.984;5.650;2023-04-25T15:17:28;19.90;86.30
44823;DHT22;51097;51.984;5.650;2023-04-25T15:19:56;19.80;88.00
44823;DHT22;51097;51.984;5.650;2023-04-25T15:22:22;19.70;88.00
44823;DHT22;51097;51.984;5.650;2023-04-25T15:24:47;19.50;88.90
44823;DHT22;51097;51.984;5.650;2023-04-25T15:27:13;19.60;90.40
44823;DHT22;51097;51.984;5.650;2023-04-25T15:29:39;19.70;90.10
44823;DHT22;51097;51.984;5.650;2023-04-25T15:32:05;19.60;90.70
44823;DHT22;51097;51.984;5.650;2023-04-25T15:34:31;19.70;90.90
44823;DHT22;51097;51.984;5.650;2023-04-25T15:36:57;19.70;89.30
44823;DHT22;51097;51.984;5.650;2023-04-25T15:39:23;19.60;91.10
44823;DHT22;51097;51.984;5.650;2023-04-25T15:41:48;19.60;90.30
44823;DHT22;51097;51.984;5.650;2023-04-25T15:44:14;19.70;90.60